WetterOnline ( https://www.wetteronline.de )

Wetter aktuell Mainhardt

Aktuelles Wetter: Öhringen (277m)

6-stündlich | Neueste Meldungen
Ortszeit Temperatur Wetter
So, 16.02. 19:00 17.8° C -
So, 16.02. 13:00 16.0° C wolkig
So, 16.02. 7:00 12.2° C bewölkt
So, 16.02. 1:00 8.9° C bedeckt
Sa, 15.02. 19:00 7.2° C leicht bewölkt
Sa, 15.02. 13:00 9.8° C bedeckt
Sa, 15.02. 7:00 1.5° C bedeckt
Sa, 15.02. 1:00 5.1° C bedeckt
Ortszeit Temperatur Wetter
So, 16.02. 23:00 16.1° C wolkig
So, 16.02. 22:50 16.1° C wolkig
So, 16.02. 22:40 16.2° C wolkig
So, 16.02. 22:30 16.0° C wolkig
So, 16.02. 22:20 16.0° C wolkig
So, 16.02. 22:10 15.9° C wolkig
So, 16.02. 22:00 16.4° C wolkig
So, 16.02. 21:30 16.8° C wolkig
So, 16.02. 21:00 16.7° C bewölkt
So, 16.02. 20:30 17.3° C wolkig
So, 16.02. 20:00 17.4° C wolkig
Ortszeit Relative Feuchte Sichtweite
So, 16.02. 19:00 30% 65 km
So, 16.02. 13:00 32% 50 km
So, 16.02. 7:00 43% 60 km
So, 16.02. 1:00 60% 50 km
Sa, 15.02. 19:00 74% 55 km
Sa, 15.02. 13:00 60% 60 km
Sa, 15.02. 7:00 95% 22 km
Sa, 15.02. 1:00 90% 40 km
Ortszeit Relative Feuchte Sichtweite
So, 16.02. 23:00 38% >70 km
So, 16.02. 22:50 38% -
So, 16.02. 22:40 37% -
So, 16.02. 22:30 38% >70 km
So, 16.02. 22:20 38% -
So, 16.02. 22:10 38% -
So, 16.02. 22:00 35% >70 km
So, 16.02. 21:30 34% >70 km
So, 16.02. 21:00 34% >70 km
So, 16.02. 20:30 31% >70 km
So, 16.02. 20:00 31% >70 km
Ortszeit Niederschlagsmenge Niederschlagsart
So, 16.02. 19:00 0.1 l/m2 in 12 Std. -
So, 16.02. 13:00 0.1 l/m2 in 6 Std. Regen
So, 16.02. 7:00 0.0 l/m2 in 12 Std. -
So, 16.02. 1:00 0.0 l/m2 in 6 Std. -
Sa, 15.02. 19:00 0.0 l/m2 in 12 Std. -
Sa, 15.02. 13:00 0.0 l/m2 in 6 Std. -
Sa, 15.02. 7:00 0.0 l/m2 in 12 Std. -
Sa, 15.02. 1:00 0.0 l/m2 in 6 Std. -
Ortszeit Niederschlagsmenge Niederschlagsart
So, 16.02. 23:00 0.0 l/m2 in 1 Std. -
So, 16.02. 22:50 keine Meldung -
So, 16.02. 22:40 keine Meldung -
So, 16.02. 22:30 0.0 l/m2 in 1 Std. -
So, 16.02. 22:20 keine Meldung -
So, 16.02. 22:10 keine Meldung -
So, 16.02. 22:00 0.0 l/m2 in 1 Std. -
So, 16.02. 21:30 0.0 l/m2 in 1 Std. -
So, 16.02. 21:00 0.0 l/m2 in 1 Std. -
So, 16.02. 20:30 0.0 l/m2 in 1 Std. -
So, 16.02. 20:00 0.0 l/m2 in 1 Std. -
Ortszeit Stärke Spitze Richtung
km/h Bft. km/h Grad Sektor
So, 16.02. 19:00 18 3 43 220° SW
So, 16.02. 13:00 14 3 36 220° SW
So, 16.02. 7:00 13 3 28 200° S
So, 16.02. 1:00 7 2 14 250° W
Sa, 15.02. 19:00 9 2 22 130° SO
Sa, 15.02. 13:00 7 2 22 260° W
Sa, 15.02. 7:00 4 1 11 100° O
Sa, 15.02. 1:00 4 1 11 110° O
Ortszeit Stärke Spitze Richtung
km/h Bft. km/h Grad Sektor
So, 16.02. 23:00 18 3 43 220° SW
So, 16.02. 22:50 18 3 - 220° SW
So, 16.02. 22:40 20 4 - 220° SW
So, 16.02. 22:30 18 3 36 220° SW
So, 16.02. 22:20 18 3 - 220° SW
So, 16.02. 22:10 18 3 - 230° SW
So, 16.02. 22:00 22 4 44 230° SW
So, 16.02. 21:30 22 4 40 220° SW
So, 16.02. 21:00 18 3 40 220° SW
So, 16.02. 20:30 20 4 39 220° SW
So, 16.02. 20:00 18 3 43 220° SW
Ortszeit Untergrenze Bedeckung Gattung
total tief tief mittel hoch
So, 16.02. 19:00 - - - - - -
So, 16.02. 13:00 2700 m 8/8 3/8 - - -
So, 16.02. 7:00 5700 m 8/8 5/8 - - -
So, 16.02. 1:00 3600 m 8/8 8/8 - - -
Sa, 15.02. 19:00 9000 m 5/8 0/8 - - -
Sa, 15.02. 13:00 6600 m 8/8 8/8 - - -
Sa, 15.02. 7:00 6000 m 8/8 8/8 - - -
Sa, 15.02. 1:00 1110 m 8/8 8/8 - - -
Ortszeit Bedeckungsgrad in Achtel und Wolkenuntergrenze
So, 16.02. 23:00 1(9000m) 8(9000m) 8(10500m)
So, 16.02. 22:50 1(9000m) 8(9000m) 8(10500m)
So, 16.02. 22:40 7(9000m) 8(10500m) 8(12000m)
So, 16.02. 22:30 2(8700m) 8(10500m) 8(10500m)
So, 16.02. 22:20 2(8700m) 8(10500m) 8(10500m)
So, 16.02. 22:10 4(8700m) 7(9000m) 8(10500m)
So, 16.02. 22:00 2(8700m) 8(9000m) 8(9000m)
So, 16.02. 21:30 2(5700m) 8(10500m) 8(12000m)
So, 16.02. 21:00 6(5700m) 8(10500m) 8(10500m)
So, 16.02. 20:30 7(9000m) 8(9000m) 8(10500m)
So, 16.02. 20:00 5(7800m) 8(9000m) 8(9000m)
Ortszeit Luftdruck NN (hPa) Tendenz (hPa in 3 Std.)
So, 16.02. 19:00 1011 - 0,9
So, 16.02. 13:00 1014 - 2,0
So, 16.02. 7:00 1017 - 0,8
So, 16.02. 1:00 1020 - 0,1
Sa, 15.02. 19:00 1021 - 0,8
Sa, 15.02. 13:00 1024 - 1,2
Sa, 15.02. 7:00 1026 - 0,4
Sa, 15.02. 1:00 1028 - 0,1
Ortszeit Luftdruck NN (hPa) Tendenz (hPa in 3 Std.)
So, 16.02. 23:00 1012 + 0,1
So, 16.02. 22:50 1012 keine Meldung
So, 16.02. 22:40 1012 keine Meldung
So, 16.02. 22:30 1012 + 0,1
So, 16.02. 22:20 1012 keine Meldung
So, 16.02. 22:10 1012 keine Meldung
So, 16.02. 22:00 1011 0,0
So, 16.02. 21:30 1011 + 0,1
So, 16.02. 21:00 1011 - 0,1
So, 16.02. 20:30 1011 - 0,2
So, 16.02. 20:00 1011 - 0,3
Ortszeit Schneehöhe (cm)
So, 16.02. 19:00 0
So, 16.02. 13:00 0
So, 16.02. 7:00 0
So, 16.02. 1:00 0
Sa, 15.02. 19:00 0
Sa, 15.02. 13:00 0
Sa, 15.02. 7:00 0
Sa, 15.02. 1:00 0
Ortszeit Schneehöhe (cm)
So, 16.02. 23:00 0
So, 16.02. 22:50 0
So, 16.02. 22:40 0
So, 16.02. 22:30 0
So, 16.02. 22:20 0
So, 16.02. 22:10 0
So, 16.02. 22:00 0
So, 16.02. 21:30 0
So, 16.02. 21:00 0
So, 16.02. 20:30 0
So, 16.02. 20:00 0
Link zu dieser Seite / Seite empfehlen

Das Wetter in ...